LDOS

Osijek Airport

Airport
ICAO code
LDOS
IATA Code
OSI
Summary
ICAO Region
EUR
ICAO Territory
Location

Klisa, Slavonia

Serving
Osijek
Elevation
291 ft
Coordinates
45° 27' 39" N , 18° 49' 1" E
KCC
Dfb
Metar
Observation
LDOS 081900Z 36006KT CAVOK 25/16 Q1018
Station
Osijek / Cepin
Date/Time
2022-08-08 19:00:00
Wind direction
360°
Wind speed
06 kts
Lowest cloud amount
clouds and visibility OK
Temperature
25°C
Dew point
16°C
Humidity
57%
QNH
1018 hPa
Weather condition
n/a

Osijek Airport is the international airport of Osijek, Croatia.

Climatology

Humid continental climate (Köppen climate classification Dfb)

Runways

Designator Length Width Surface Rops
11/29 2499 45 ASP No/No

Airport map

Aerial View

SKYbrary Partners:

Safety knowledge contributed by: